Time;durP1;ratioP1;P1;durP2;ratioP2;P2;SDS_P1;SDS_P2;PMS_P1;PMS_P2;Temp;Humidity;BMP_temperature;BMP_pressure;BME280_temperature;BME280_humidity;BME280_pressure;Samples;Min_cycle;Max_cycle;Signal;HPM_P1;HPM_P2
2024/04/14 00:01:26;;;;;;;7.53;6.73;;;;;;;;;;5521871;26;20232;-89
2024/04/14 00:03:58;;;;;;;7.47;6.17;;;;;;;;;;5491644;26;20228;-88
2024/04/14 00:06:26;;;;;;;6.03;5.47;;;;;;;;;;5494405;26;20711;-89
2024/04/14 00:08:53;;;;;;;7.13;5.90;;;;;;;;;;5492476;26;20220;-89
2024/04/14 00:11:21;;;;;;;6.17;5.10;;;;;;;;;;5530932;26;20219;-88
2024/04/14 00:13:47;;;;;;;5.70;5.17;;;;;;;;;;5528870;26;20217;-89
2024/04/14 00:16:15;;;;;;;8.53;5.63;;;;;;;;;;5524120;26;20296;-89
2024/04/14 00:18:41;;;;;;;8.30;5.23;;;;;;;;;;5491512;26;20219;-89
2024/04/14 00:21:13;;;;;;;6.03;5.50;;;;;;;;;;5494480;26;20251;-89
2024/04/14 00:23:39;;;;;;;5.87;5.27;;;;;;;;;;5495944;26;20271;-88
2024/04/14 00:26:08;;;;;;;6.57;5.00;;;;;;;;;;5498573;26;20235;-89
2024/04/14 00:28:34;;;;;;;10.77;5.23;;;;;;;;;;5491728;26;20220;-89
2024/04/14 00:31:03;;;;;;;6.00;5.50;;;;;;;;;;5493660;26;20220;-88
2024/04/14 00:33:30;;;;;;;5.67;5.20;;;;;;;;;;5491360;26;20221;-89
2024/04/14 00:35:58;;;;;;;5.50;4.57;;;;;;;;;;5511593;26;20304;-89
2024/04/14 00:38:27;;;;;;;5.07;4.57;;;;;;;;;;5528308;26;20275;-89
2024/04/14 00:40:55;;;;;;;5.37;4.87;;;;;;;;;;5531247;26;20235;-89
2024/04/14 00:43:21;;;;;;;6.57;5.47;;;;;;;;;;5525986;26;20266;-88
2024/04/14 00:45:50;;;;;;;6.97;5.10;;;;;;;;;;5530999;26;20213;-89
2024/04/14 00:48:15;;;;;;;7.07;5.13;;;;;;;;;;5527162;26;20246;-89
2024/04/14 00:50:46;;;;;;;7.60;5.63;;;;;;;;;;5528550;26;20293;-89
2024/04/14 00:53:12;;;;;;;5.40;4.90;;;;;;;;;;5527192;26;20822;-90
2024/04/14 00:55:43;;;;;;;8.27;5.00;;;;;;;;;;5530726;26;20216;-90
2024/04/14 00:58:09;;;;;;;6.83;6.13;;;;;;;;;;5497082;26;20596;-90
2024/04/14 01:00:38;;;;;;;6.53;5.23;;;;;;;;;;5509811;26;20231;-89
2024/04/14 01:03:04;;;;;;;6.93;5.77;;;;;;;;;;5527786;26;20221;-90
2024/04/14 01:05:33;;;;;;;9.80;4.90;;;;;;;;;;5514256;26;20229;-90
2024/04/14 01:07:58;;;;;;;5.57;4.93;;;;;;;;;;5490230;26;20255;-89
2024/04/14 01:10:29;;;;;;;5.63;5.03;;;;;;;;;;5493416;26;20217;-90
2024/04/14 01:12:57;;;;;;;6.30;5.50;;;;;;;;;;5490915;26;20288;-90
2024/04/14 01:15:26;;;;;;;6.57;5.73;;;;;;;;;;5506253;26;20265;-90
2024/04/14 01:17:52;;;;;;;6.37;5.77;;;;;;;;;;5521376;26;20238;-90
2024/04/14 01:20:20;;;;;;;5.63;5.13;;;;;;;;;;5492539;26;20620;-91
2024/04/14 01:22:46;;;;;;;7.37;5.80;;;;;;;;;;5490758;26;20222;-90
2024/04/14 01:25:17;;;;;;;7.67;5.37;;;;;;;;;;5492265;26;20587;-89
2024/04/14 01:27:44;;;;;;;5.57;5.07;;;;;;;;;;5490489;26;20265;-89
2024/04/14 01:30:13;;;;;;;5.23;4.73;;;;;;;;;;5491572;26;20255;-88
2024/04/14 01:32:39;;;;;;;7.83;4.53;;;;;;;;;;5490413;26;20222;-89
2024/04/14 01:35:09;;;;;;;5.23;4.80;;;;;;;;;;5492923;26;20711;-89
2024/04/14 01:37:35;;;;;;;5.33;4.30;;;;;;;;;;5488855;26;20544;-89
2024/04/14 01:40:05;;;;;;;5.17;4.77;;;;;;;;;;5492598;26;20241;-90
2024/04/14 01:42:33;;;;;;;5.23;4.63;;;;;;;;;;5490548;26;20590;-90
2024/04/14 01:45:02;;;;;;;6.40;4.20;;;;;;;;;;5491032;26;20713;-89
2024/04/14 01:47:28;;;;;;;4.97;4.50;;;;;;;;;;5490027;26;20225;-89
2024/04/14 01:49:56;;;;;;;4.90;4.40;;;;;;;;;;5520017;26;20229;-90
2024/04/14 01:52:22;;;;;;;6.63;5.10;;;;;;;;;;5524874;26;20232;-89
2024/04/14 01:54:51;;;;;;;7.20;4.53;;;;;;;;;;5519293;26;20611;-90
2024/04/14 01:57:16;;;;;;;3.83;3.53;;;;;;;;;;5490227;26;20218;-89
2024/04/14 01:59:47;;;;;;;3.93;3.53;;;;;;;;;;5491775;26;20272;-89
2024/04/14 02:02:13;;;;;;;6.90;4.03;;;;;;;;;;5504213;26;20270;-89
2024/04/14 02:04:42;;;;;;;8.53;4.00;;;;;;;;;;5532895;26;20277;-89
2024/04/14 02:07:07;;;;;;;4.10;3.37;;;;;;;;;;5506158;26;20274;-90
2024/04/14 02:09:36;;;;;;;4.23;3.67;;;;;;;;;;5496306;26;20228;-89
2024/04/14 02:12:04;;;;;;;4.00;3.60;;;;;;;;;;5493966;26;20291;-90
2024/04/14 02:14:30;;;;;;;4.80;3.73;;;;;;;;;;5493233;26;20222;-89
2024/04/14 02:17:01;;;;;;;4.17;3.57;;;;;;;;;;5494694;26;20280;-89
2024/04/14 02:19:27;;;;;;;6.57;3.07;;;;;;;;;;5493395;26;20249;-89
2024/04/14 02:21:57;;;;;;;3.77;3.07;;;;;;;;;;5496445;26;20219;-89
2024/04/14 02:24:23;;;;;;;4.60;3.63;;;;;;;;;;5491982;26;20240;-89
2024/04/14 02:26:52;;;;;;;4.03;3.43;;;;;;;;;;5495968;26;20220;-90
2024/04/14 02:29:18;;;;;;;5.80;3.53;;;;;;;;;;5493376;26;20223;-90
2024/04/14 02:31:46;;;;;;;3.10;2.80;;;;;;;;;;5494139;26;20234;-90
2024/04/14 02:34:14;;;;;;;3.60;2.90;;;;;;;;;;5493034;26;20334;-90
2024/04/14 02:36:43;;;;;;;4.33;3.13;;;;;;;;;;5493684;26;20274;-90
2024/04/14 02:39:09;;;;;;;5.33;3.37;;;;;;;;;;5513754;26;20238;-89
2024/04/14 02:41:38;;;;;;;4.13;3.40;;;;;;;;;;5532935;26;20217;-89
2024/04/14 02:44:04;;;;;;;4.67;2.80;;;;;;;;;;5526392;26;20249;-90
2024/04/14 02:46:33;;;;;;;4.20;2.63;;;;;;;;;;5519980;26;20726;-89
2024/04/14 02:48:59;;;;;;;4.23;3.47;;;;;;;;;;5530141;26;20219;-89
2024/04/14 02:51:30;;;;;;;7.33;3.30;;;;;;;;;;5515102;26;20231;-89
2024/04/14 02:53:56;;;;;;;4.60;3.30;;;;;;;;;;5529818;26;20220;-90
2024/04/14 02:56:24;;;;;;;5.13;2.97;;;;;;;;;;5529818;26;20254;-91
2024/04/14 02:58:50;;;;;;;3.10;2.83;;;;;;;;;;5491883;26;20266;-90
2024/04/14 03:01:18;;;;;;;4.17;3.00;;;;;;;;;;5507416;26;20699;-90
2024/04/14 03:03:44;;;;;;;3.00;2.80;;;;;;;;;;5528817;26;20283;-91
2024/04/14 03:06:14;;;;;;;3.33;2.77;;;;;;;;;;5521990;26;20325;-91
2024/04/14 03:08:43;;;;;;;4.20;3.03;;;;;;;;;;5492880;26;20228;-92
2024/04/14 03:11:12;;;;;;;4.10;3.00;;;;;;;;;;5493544;26;20270;-90
2024/04/14 03:13:38;;;;;;;6.30;3.37;;;;;;;;;;5491852;26;20220;-90
2024/04/14 03:16:07;;;;;;;4.90;3.20;;;;;;;;;;5494275;26;20275;-90
2024/04/14 03:18:33;;;;;;;5.57;2.83;;;;;;;;;;5491748;26;20737;-91
2024/04/14 03:21:02;;;;;;;4.37;3.10;;;;;;;;;;5495211;26;20269;-91
2024/04/14 03:23:28;;;;;;;3.97;2.97;;;;;;;;;;5491197;26;20271;-90
2024/04/14 03:26:01;;;;;;;2.73;2.53;;;;;;;;;;5495191;26;20228;-90
2024/04/14 03:28:27;;;;;;;6.27;3.27;;;;;;;;;;5492949;26;20544;-91
2024/04/14 03:31:00;;;;;;;4.53;3.10;;;;;;;;;;5493217;26;20338;-90
2024/04/14 03:33:26;;;;;;;5.07;3.10;;;;;;;;;;5492473;26;20354;-90
2024/04/14 03:36:01;;;;;;;3.63;3.30;;;;;;;;;;5528961;26;20271;-91
2024/04/14 03:38:30;;;;;;;4.07;2.70;;;;;;;;;;5527493;26;20246;-92
2024/04/14 03:41:01;;;;;;;4.47;3.10;;;;;;;;;;5509007;26;20274;-92
2024/04/14 03:43:30;;;;;;;3.10;2.87;;;;;;;;;;5492839;26;20219;-92
2024/04/14 03:45:58;;;;;;;3.40;2.90;;;;;;;;;;5492631;26;20283;-91
2024/04/14 03:48:27;;;;;;;3.87;3.27;;;;;;;;;;5492372;26;20221;-93
2024/04/14 03:50:52;;;;;;;5.67;2.87;;;;;;;;;;5490628;26;20233;-92
2024/04/14 03:53:21;;;;;;;4.23;3.80;;;;;;;;;;5495141;26;20596;-93
2024/04/14 03:55:48;;;;;;;3.23;2.93;;;;;;;;;;5529780;26;20219;-93
2024/04/14 03:58:19;;;;;;;4.23;3.03;;;;;;;;;;5530332;26;20231;-93
2024/04/14 04:00:45;;;;;;;5.50;3.10;;;;;;;;;;5529152;26;20219;-92
2024/04/14 04:03:13;;;;;;;2.80;2.60;;;;;;;;;;5496934;26;20248;-92
2024/04/14 04:05:39;;;;;;;4.60;3.07;;;;;;;;;;5492449;26;20220;-91
2024/04/14 04:08:08;;;;;;;6.33;3.40;;;;;;;;;;5493239;26;20233;-92
2024/04/14 04:10:34;;;;;;;5.03;2.90;;;;;;;;;;5492313;26;20698;-92
2024/04/14 04:13:02;;;;;;;4.60;2.87;;;;;;;;;;5527915;26;20227;-91
2024/04/14 04:15:31;;;;;;;4.73;3.53;;;;;;;;;;5528960;26;20216;-91
2024/04/14 04:17:59;;;;;;;3.50;2.90;;;;;;;;;;5521194;26;20233;-91
2024/04/14 04:20:25;;;;;;;3.67;3.30;;;;;;;;;;5494683;26;20217;-92
2024/04/14 04:22:53;;;;;;;3.30;3.00;;;;;;;;;;5519854;25;20329;-92
2024/04/14 04:25:19;;;;;;;3.13;2.83;;;;;;;;;;5490733;26;20224;-91
2024/04/14 04:27:47;;;;;;;4.37;3.60;;;;;;;;;;5494329;26;20257;-92
2024/04/14 04:30:14;;;;;;;3.93;3.30;;;;;;;;;;5491873;26;20263;-93
2024/04/14 04:32:46;;;;;;;3.90;3.57;;;;;;;;;;5493989;26;20259;-90
2024/04/14 04:35:11;;;;;;;4.73;3.73;;;;;;;;;;5515629;26;20326;-83
2024/04/14 04:37:40;;;;;;;3.93;3.50;;;;;;;;;;5528916;26;20224;-90
2024/04/14 04:40:08;;;;;;;3.53;3.23;;;;;;;;;;5504547;26;20340;-90
2024/04/14 04:42:37;;;;;;;4.47;3.40;;;;;;;;;;5497619;26;20245;-89
2024/04/14 04:45:04;;;;;;;4.37;3.50;;;;;;;;;;5479766;26;20592;-90
2024/04/14 04:47:33;;;;;;;4.27;3.30;;;;;;;;;;5529035;26;20231;-89
2024/04/14 04:50:01;;;;;;;4.20;3.03;;;;;;;;;;5504858;26;20368;-91
2024/04/14 04:52:30;;;;;;;3.63;3.27;;;;;;;;;;5498028;26;20302;-89
2024/04/14 04:54:56;;;;;;;5.07;3.63;;;;;;;;;;5527779;26;20341;-90
2024/04/14 04:57:24;;;;;;;3.63;3.33;;;;;;;;;;5531615;26;20215;-93
2024/04/14 04:59:50;;;;;;;5.97;3.20;;;;;;;;;;5503217;26;20639;-83
2024/04/14 05:02:18;;;;;;;5.43;2.90;;;;;;;;;;5493880;26;20221;-91
2024/04/14 05:04:44;;;;;;;4.03;3.27;;;;;;;;;;5489013;26;20276;-89
2024/04/14 05:07:15;;;;;;;4.43;3.60;;;;;;;;;;5520867;26;20233;-89
2024/04/14 05:09:41;;;;;;;5.10;3.30;;;;;;;;;;5502778;26;20232;-92
2024/04/14 05:12:10;;;;;;;5.97;3.00;;;;;;;;;;5506823;26;20230;-90
2024/04/14 05:14:36;;;;;;;3.97;2.67;;;;;;;;;;5496651;26;20273;-90
2024/04/14 05:17:05;;;;;;;4.90;3.17;;;;;;;;;;5510909;26;20279;-91
2024/04/14 05:19:30;;;;;;;3.40;3.10;;;;;;;;;;5515289;26;20272;-89
2024/04/14 05:21:59;;;;;;;3.93;2.77;;;;;;;;;;5507343;26;20235;-91
2024/04/14 05:24:27;;;;;;;3.90;2.93;;;;;;;;;;5507203;26;20232;-91
2024/04/14 05:26:56;;;;;;;4.63;2.80;;;;;;;;;;5523010;26;20230;-90
2024/04/14 05:29:22;;;;;;;6.97;3.33;;;;;;;;;;5526680;26;20229;-91
2024/04/14 05:31:50;;;;;;;3.13;2.90;;;;;;;;;;5515713;26;20240;-95
2024/04/14 05:34:16;;;;;;;3.47;3.17;;;;;;;;;;5528824;26;20231;-92
2024/04/14 05:36:46;;;;;;;4.97;3.47;;;;;;;;;;5530073;26;20600;-86
2024/04/14 05:39:12;;;;;;;3.63;3.13;;;;;;;;;;5493141;26;20228;-87
2024/04/14 05:41:43;;;;;;;7.07;3.07;;;;;;;;;;5494109;26;20723;-87
2024/04/14 05:44:09;;;;;;;4.30;3.47;;;;;;;;;;5491216;26;20267;-88
2024/04/14 05:46:37;;;;;;;10.83;4.00;;;;;;;;;;5495804;26;20257;-89
2024/04/14 05:49:03;;;;;;;3.60;2.47;;;;;;;;;;5462862;26;20220;-89
2024/04/14 05:51:32;;;;;;;4.83;2.70;;;;;;;;;;5467865;26;20247;-90
2024/04/14 05:53:58;;;;;;;2.97;2.73;;;;;;;;;;5498299;26;20223;-89
2024/04/14 05:56:26;;;;;;;2.77;2.57;;;;;;;;;;5533355;26;20250;-89
2024/04/14 05:58:55;;;;;;;4.43;2.90;;;;;;;;;;5530025;26;20227;-88
2024/04/14 06:01:23;;;;;;;4.30;2.80;;;;;;;;;;5500687;26;20322;-88
2024/04/14 06:03:49;;;;;;;3.57;3.17;;;;;;;;;;5494284;26;20324;-90
2024/04/14 06:06:18;;;;;;;3.50;2.77;;;;;;;;;;5448746;26;20231;-89
2024/04/14 06:08:44;;;;;;;5.50;3.53;;;;;;;;;;5529185;26;20664;-88
2024/04/14 06:11:12;;;;;;;2.97;2.77;;;;;;;;;;5504499;26;20251;-88
2024/04/14 06:13:38;;;;;;;3.07;2.77;;;;;;;;;;5473067;26;20279;-89
2024/04/14 06:16:10;;;;;;;3.80;2.63;;;;;;;;;;5499687;26;20227;-89
2024/04/14 06:18:35;;;;;;;4.00;2.83;;;;;;;;;;5528229;26;20558;-89
2024/04/14 06:21:05;;;;;;;6.20;3.30;;;;;;;;;;5531935;26;20262;-89
2024/04/14 06:23:31;;;;;;;2.40;2.20;;;;;;;;;;5528466;26;20228;-89
2024/04/14 06:26:00;;;;;;;4.20;2.67;;;;;;;;;;5498632;26;20231;-89
2024/04/14 06:28:26;;;;;;;3.90;2.60;;;;;;;;;;5496523;26;20306;-90
2024/04/14 06:30:55;;;;;;;4.37;3.50;;;;;;;;;;5494780;26;20564;-89
2024/04/14 06:33:24;;;;;;;5.40;2.67;;;;;;;;;;5491205;26;20275;-89
2024/04/14 06:35:54;;;;;;;4.67;2.80;;;;;;;;;;5494821;26;20221;-88
2024/04/14 06:38:20;;;;;;;5.73;2.90;;;;;;;;;;5517245;26;20303;-88
2024/04/14 06:40:48;;;;;;;3.73;3.20;;;;;;;;;;5513205;26;20237;-88
2024/04/14 06:43:16;;;;;;;5.33;2.83;;;;;;;;;;5527296;26;20721;-89
2024/04/14 06:45:48;;;;;;;1.93;1.83;;;;;;;;;;5531376;25;20219;-89
2024/04/14 06:48:16;;;;;;;4.00;2.83;;;;;;;;;;5463924;26;20236;-88
2024/04/14 06:50:51;;;;;;;5.30;3.17;;;;;;;;;;5504038;26;20232;-88
2024/04/14 06:53:20;;;;;;;2.60;2.40;;;;;;;;;;5497391;26;20223;-87
2024/04/14 06:55:50;;;;;;;5.53;3.03;;;;;;;;;;5531060;26;20630;-88
2024/04/14 06:58:16;;;;;;;6.83;3.30;;;;;;;;;;5482353;26;20233;-88
2024/04/14 07:00:44;;;;;;;9.70;2.90;;;;;;;;;;5493727;26;20637;-88
2024/04/14 07:03:11;;;;;;;3.00;2.50;;;;;;;;;;5470940;26;20235;-88
2024/04/14 07:05:40;;;;;;;2.67;2.47;;;;;;;;;;5530260;26;20573;-88
2024/04/14 07:08:08;;;;;;;3.97;2.87;;;;;;;;;;5496003;26;20753;-88
2024/04/14 07:10:37;;;;;;;3.43;2.53;;;;;;;;;;5531936;26;20266;-88
2024/04/14 07:13:03;;;;;;;7.10;2.97;;;;;;;;;;5526622;26;20220;-88
2024/04/14 07:15:32;;;;;;;3.57;2.90;;;;;;;;;;5530213;26;20327;-88
2024/04/14 07:17:58;;;;;;;4.30;2.90;;;;;;;;;;5529061;26;20250;-88
2024/04/14 07:20:26;;;;;;;5.87;2.70;;;;;;;;;;5499769;26;20675;-87
2024/04/14 07:22:52;;;;;;;5.03;3.57;;;;;;;;;;5494677;26;20261;-88
2024/04/14 07:25:24;;;;;;;2.90;2.60;;;;;;;;;;5500474;26;20233;-87
2024/04/14 07:27:49;;;;;;;11.67;3.40;;;;;;;;;;5490622;26;20225;-88
2024/04/14 07:30:18;;;;;;;3.30;3.00;;;;;;;;;;5462619;26;20267;-88
2024/04/14 07:32:44;;;;;;;4.87;2.90;;;;;;;;;;5460667;26;20225;-88
2024/04/14 07:35:14;;;;;;;2.90;2.70;;;;;;;;;;5462242;26;20267;-88
2024/04/14 07:37:40;;;;;;;2.83;2.27;;;;;;;;;;5460600;26;20255;-88
2024/04/14 07:40:11;;;;;;;7.07;2.80;;;;;;;;;;5481041;26;20708;-89
2024/04/14 07:42:40;;;;;;;3.17;2.80;;;;;;;;;;5526456;26;20287;-89
2024/04/14 07:45:10;;;;;;;6.43;3.30;;;;;;;;;;5529143;26;20691;-88
2024/04/14 07:47:36;;;;;;;5.03;2.57;;;;;;;;;;5469294;26;20229;-88
2024/04/14 07:50:05;;;;;;;2.87;2.40;;;;;;;;;;5476811;26;20227;-88
2024/04/14 07:52:31;;;;;;;3.10;2.80;;;;;;;;;;5528667;26;20574;-88
2024/04/14 07:55:00;;;;;;;8.23;2.97;;;;;;;;;;5530921;26;20231;-89
2024/04/14 07:57:27;;;;;;;4.27;2.80;;;;;;;;;;5526282;26;20258;-87
2024/04/14 07:59:58;;;;;;;2.50;2.30;;;;;;;;;;5529096;26;20328;-88
2024/04/14 08:02:25;;;;;;;3.23;2.40;;;;;;;;;;5505202;26;20276;-88
2024/04/14 08:04:54;;;;;;;3.93;2.80;;;;;;;;;;5494141;26;20224;-88
2024/04/14 08:07:20;;;;;;;4.17;2.93;;;;;;;;;;5505872;26;20232;-89
2024/04/14 08:09:48;;;;;;;3.60;2.53;;;;;;;;;;5462126;26;20752;-89
2024/04/14 08:12:14;;;;;;;4.70;2.53;;;;;;;;;;5459975;26;20213;-88
2024/04/14 08:14:43;;;;;;;3.17;2.67;;;;;;;;;;5488407;26;20239;-89
2024/04/14 08:17:12;;;;;;;3.03;2.77;;;;;;;;;;5526944;26;20235;-89
2024/04/14 08:19:40;;;;;;;10.10;3.37;;;;;;;;;;5530984;26;20679;-88
2024/04/14 08:22:06;;;;;;;2.87;2.63;;;;;;;;;;5504121;26;20598;-88
2024/04/14 08:24:35;;;;;;;4.53;2.93;;;;;;;;;;5492234;26;20333;-87
2024/04/14 08:27:01;;;;;;;4.07;2.57;;;;;;;;;;5489324;26;20237;-86
2024/04/14 08:29:30;;;;;;;3.43;2.27;;;;;;;;;;5492649;26;20229;-87
2024/04/14 08:31:56;;;;;;;4.77;2.23;;;;;;;;;;5465624;26;20266;-87
2024/04/14 08:34:27;;;;;;;4.77;2.20;;;;;;;;;;5529847;26;20241;-87
2024/04/14 08:36:53;;;;;;;5.10;3.00;;;;;;;;;;5527751;26;20220;-88
2024/04/14 08:39:21;;;;;;;4.10;2.57;;;;;;;;;;5469220;26;20268;-88
2024/04/14 08:41:48;;;;;;;5.75;4.85;;;;;;;;;;5490794;26;20217;-88
2024/04/14 08:44:17;;;;;;;6.13;5.03;;;;;;;;;;5460880;26;20255;-88
2024/04/14 08:46:43;;;;;;;5.88;2.90;;;;;;;;;;5517520;26;20344;-88
2024/04/14 08:49:13;;;;;;;3.20;2.90;;;;;;;;;;5522795;26;20227;-88
2024/04/14 08:51:42;;;;;;;3.70;2.63;;;;;;;;;;5499725;26;20232;-88
2024/04/14 08:54:10;;;;;;;4.40;2.58;;;;;;;;;;5492240;26;20559;-88
2024/04/14 08:56:36;;;;;;;4.15;2.88;;;;;;;;;;5488682;26;20269;-88
2024/04/14 08:59:07;;;;;;;2.70;2.50;;;;;;;;;;5484297;26;20235;-88
2024/04/14 09:01:34;;;;;;;6.57;2.67;;;;;;;;;;5527278;26;20251;-88
2024/04/14 09:04:04;;;;;;;4.50;3.47;;;;;;;;;;5479436;26;20342;-88
2024/04/14 09:06:30;;;;;;;2.70;2.50;;;;;;;;;;5526386;26;20580;-87
2024/04/14 09:09:02;;;;;;;5.37;2.60;;;;;;;;;;5529877;25;20311;-89
2024/04/14 09:11:28;;;;;;;2.80;2.57;;;;;;;;;;5527968;26;20749;-87
2024/04/14 09:13:57;;;;;;;2.95;2.58;;;;;;;;;;5499764;26;20227;-88
2024/04/14 09:16:23;;;;;;;8.10;2.80;;;;;;;;;;5530116;26;20223;-88
2024/04/14 09:18:52;;;;;;;6.28;2.90;;;;;;;;;;5532703;26;20322;-88
2024/04/14 09:21:17;;;;;;;3.83;2.72;;;;;;;;;;5528109;26;20232;-88
2024/04/14 09:23:46;;;;;;;4.53;2.88;;;;;;;;;;5532498;26;20318;-88
2024/04/14 09:26:14;;;;;;;3.08;2.63;;;;;;;;;;5496892;26;20239;-88
2024/04/14 09:28:43;;;;;;;4.85;2.90;;;;;;;;;;5532136;26;20224;-88
2024/04/14 09:31:09;;;;;;;3.38;3.08;;;;;;;;;;5530762;26;20215;-89
2024/04/14 09:33:38;;;;;;;3.33;3.03;;;;;;;;;;5500558;26;20257;-88
2024/04/14 09:36:05;;;;;;;3.17;2.60;;;;;;;;;;5498317;26;20300;-89
2024/04/14 09:38:34;;;;;;;6.50;2.83;;;;;;;;;;5531841;26;20712;-88
2024/04/14 09:41:00;;;;;;;4.80;2.70;;;;;;;;;;5492080;26;20237;-88
2024/04/14 09:43:33;;;;;;;3.35;3.05;;;;;;;;;;5463697;26;20260;-88
2024/04/14 09:45:59;;;;;;;3.97;2.70;;;;;;;;;;5494558;26;20231;-88
2024/04/14 09:48:29;;;;;;;2.80;2.53;;;;;;;;;;5470058;26;20262;-89
2024/04/14 09:50:57;;;;;;;3.90;2.90;;;;;;;;;;5530542;26;20215;-88
2024/04/14 09:53:31;;;;;;;4.47;2.40;;;;;;;;;;5509373;26;20233;-88
2024/04/14 09:55:57;;;;;;;2.78;2.55;;;;;;;;;;5520765;26;20740;-89
2024/04/14 09:58:26;;;;;;;3.78;2.97;;;;;;;;;;5504453;26;20241;-89
2024/04/14 10:00:55;;;;;;;3.95;2.85;;;;;;;;;;5517465;26;20263;-89
2024/04/14 10:03:24;;;;;;;3.92;2.95;;;;;;;;;;5501200;26;20228;-89
2024/04/14 10:05:51;;;;;;;3.92;2.85;;;;;;;;;;5530229;26;20250;-89
2024/04/14 10:08:20;;;;;;;3.03;2.70;;;;;;;;;;5532731;26;20571;-88
2024/04/14 10:10:46;;;;;;;3.90;3.30;;;;;;;;;;5528366;26;20270;-89
2024/04/14 10:13:14;;;;;;;3.38;3.08;;;;;;;;;;5532723;26;20263;-88
2024/04/14 10:15:44;;;;;;;3.13;2.83;;;;;;;;;;5530258;26;20220;-89
2024/04/14 10:18:17;;;;;;;3.10;2.88;;;;;;;;;;5508906;26;20245;-88
2024/04/14 10:20:43;;;;;;;3.95;2.88;;;;;;;;;;5491686;26;20225;-89
2024/04/14 10:23:12;;;;;;;2.72;2.53;;;;;;;;;;5495563;26;20308;-89
2024/04/14 10:25:44;;;;;;;3.47;3.20;;;;;;;;;;5491626;26;20228;-90
2024/04/14 10:28:13;;;;;;;3.00;2.80;;;;;;;;;;5495216;26;20285;-89
2024/04/14 10:30:39;;;;;;;4.80;3.05;;;;;;;;;;5526895;26;20271;-88
2024/04/14 10:33:08;;;;;;;5.63;2.97;;;;;;;;;;5531806;26;20227;-88
2024/04/14 10:35:37;;;;;;;2.97;2.78;;;;;;;;;;5528793;26;20269;-89
2024/04/14 10:38:07;;;;;;;3.55;2.70;;;;;;;;;;5495527;26;20256;-89
2024/04/14 10:40:37;;;;;;;3.88;3.08;;;;;;;;;;5492546;26;20288;-89
2024/04/14 10:43:06;;;;;;;2.90;2.47;;;;;;;;;;5532693;26;20212;-89
2024/04/14 10:45:31;;;;;;;3.40;2.85;;;;;;;;;;5528767;26;20352;-89
2024/04/14 10:48:00;;;;;;;2.88;2.20;;;;;;;;;;5514108;26;20228;-89
2024/04/14 10:50:27;;;;;;;2.75;2.55;;;;;;;;;;5492650;26;20217;-89
2024/04/14 10:52:58;;;;;;;5.10;2.88;;;;;;;;;;5495058;26;20259;-86
2024/04/14 10:55:24;;;;;;;3.22;2.72;;;;;;;;;;5492584;26;20256;-88
2024/04/14 10:57:53;;;;;;;3.28;2.97;;;;;;;;;;5494660;26;20233;-89
2024/04/14 11:00:19;;;;;;;3.25;2.83;;;;;;;;;;5508070;26;20331;-88
2024/04/14 11:02:47;;;;;;;3.15;2.85;;;;;;;;;;5513957;26;20233;-88
2024/04/14 11:05:13;;;;;;;3.03;2.55;;;;;;;;;;5521730;26;20258;-88
2024/04/14 11:07:42;;;;;;;3.05;2.58;;;;;;;;;;5497374;26;20271;-87
2024/04/14 11:10:11;;;;;;;6.25;3.05;;;;;;;;;;5500783;26;20301;-88
2024/04/14 11:12:40;;;;;;;3.03;2.72;;;;;;;;;;5531790;26;20262;-89
2024/04/14 11:15:09;;;;;;;3.25;2.95;;;;;;;;;;5528705;26;20215;-87
2024/04/14 11:17:38;;;;;;;8.13;3.47;;;;;;;;;;5531249;26;20223;-88
2024/04/14 11:20:05;;;;;;;5.07;3.35;;;;;;;;;;5529083;26;20216;-88
2024/04/14 11:22:34;;;;;;;3.00;2.80;;;;;;;;;;5531244;26;20212;-88
2024/04/14 11:25:00;;;;;;;3.40;3.10;;;;;;;;;;5528599;26;20219;-87
2024/04/14 11:27:31;;;;;;;3.42;2.17;;;;;;;;;;5531124;26;20223;-88
2024/04/14 11:29:57;;;;;;;4.63;2.30;;;;;;;;;;5528427;26;20216;-84
2024/04/14 11:32:33;;;;;;;2.67;2.47;;;;;;;;;;5530937;25;20262;-88
2024/04/14 11:35:01;;;;;;;6.65;2.97;;;;;;;;;;5528377;26;20249;-87
2024/04/14 11:37:32;;;;;;;2.53;2.33;;;;;;;;;;5529060;26;20662;-85
2024/04/14 11:39:58;;;;;;;3.25;2.95;;;;;;;;;;5528098;26;20323;-86
2024/04/14 11:42:26;;;;;;;2.72;2.53;;;;;;;;;;5531311;26;20312;-86
2024/04/14 11:44:55;;;;;;;3.35;2.60;;;;;;;;;;5526521;26;20232;-86
2024/04/14 11:47:25;;;;;;;2.90;2.58;;;;;;;;;;5511689;26;20704;-86
2024/04/14 11:49:51;;;;;;;2.60;2.40;;;;;;;;;;5513814;26;20225;-86
2024/04/14 11:52:19;;;;;;;3.80;2.58;;;;;;;;;;5523113;26;20270;-85
2024/04/14 11:54:45;;;;;;;3.92;2.92;;;;;;;;;;5526425;26;20228;-86
2024/04/14 11:57:13;;;;;;;4.50;2.50;;;;;;;;;;5529283;26;20274;-84
2024/04/14 11:59:39;;;;;;;2.53;2.33;;;;;;;;;;5526385;26;20744;-84
2024/04/14 12:02:10;;;;;;;5.55;2.60;;;;;;;;;;5528997;26;20282;-85
2024/04/14 12:04:36;;;;;;;2.75;2.50;;;;;;;;;;5523588;26;20335;-85
2024/04/14 12:07:05;;;;;;;2.08;1.98;;;;;;;;;;5500646;26;20239;-85
2024/04/14 12:09:31;;;;;;;2.28;2.08;;;;;;;;;;5502583;26;20245;-84
2024/04/14 12:12:00;;;;;;;2.40;2.20;;;;;;;;;;5443017;26;20574;-85
2024/04/14 12:14:26;;;;;;;2.75;2.13;;;;;;;;;;5481471;26;20805;-83
2024/04/14 12:16:56;;;;;;;2.20;2.10;;;;;;;;;;5460666;26;20225;-85
2024/04/14 12:19:25;;;;;;;5.65;2.28;;;;;;;;;;5462544;26;20263;-85
2024/04/14 12:21:53;;;;;;;6.22;2.55;;;;;;;;;;5491396;26;20275;-85
2024/04/14 12:24:19;;;;;;;5.30;2.03;;;;;;;;;;5515169;26;20248;-84
2024/04/14 12:26:48;;;;;;;2.42;2.22;;;;;;;;;;5452829;26;20334;-86
2024/04/14 12:29:13;;;;;;;4.00;2.17;;;;;;;;;;5494885;26;20678;-83
2024/04/14 12:31:42;;;;;;;4.72;2.40;;;;;;;;;;5529820;26;20236;-83
2024/04/14 12:34:08;;;;;;;3.13;2.60;;;;;;;;;;5502933;26;20276;-83
2024/04/14 12:36:40;;;;;;;2.58;2.38;;;;;;;;;;5461151;26;20220;-86
2024/04/14 12:39:06;;;;;;;3.58;2.40;;;;;;;;;;5488734;26;20381;-86
2024/04/14 12:41:35;;;;;;;4.72;2.50;;;;;;;;;;5506383;26;20643;-85
2024/04/14 12:44:01;;;;;;;2.70;2.10;;;;;;;;;;5494312;26;20702;-84
2024/04/14 12:46:30;;;;;;;2.50;2.30;;;;;;;;;;5529152;26;20258;-81
2024/04/14 12:48:56;;;;;;;3.13;2.30;;;;;;;;;;5492198;26;20591;-81
2024/04/14 12:51:25;;;;;;;3.25;2.63;;;;;;;;;;5492460;26;20271;-82
2024/04/14 12:53:53;;;;;;;6.32;2.85;;;;;;;;;;5489047;26;20358;-81
2024/04/14 12:56:21;;;;;;;3.20;2.38;;;;;;;;;;5491403;26;20590;-84
2024/04/14 12:58:47;;;;;;;3.92;2.30;;;;;;;;;;5499851;26;20273;-81
2024/04/14 13:01:16;;;;;;;6.05;2.28;;;;;;;;;;5529063;26;20579;-81
2024/04/14 13:03:41;;;;;;;2.25;2.10;;;;;;;;;;5524297;26;20726;-81
2024/04/14 13:06:10;;;;;;;3.67;2.20;;;;;;;;;;5529013;26;20254;-81
2024/04/14 13:08:35;;;;;;;5.07;2.22;;;;;;;;;;5526620;26;20224;-81
2024/04/14 13:11:07;;;;;;;2.40;2.20;;;;;;;;;;5528778;26;20270;-82
2024/04/14 13:13:35;;;;;;;4.28;2.53;;;;;;;;;;5524764;26;20228;-81
2024/04/14 13:16:02;;;;;;;3.53;2.28;;;;;;;;;;5525348;26;20288;-82
2024/04/14 13:18:31;;;;;;;4.15;2.33;;;;;;;;;;5528835;26;20215;-81
2024/04/14 13:20:57;;;;;;;2.95;2.65;;;;;;;;;;5526625;26;20249;-81
2024/04/14 13:23:26;;;;;;;4.35;2.38;;;;;;;;;;5504674;26;20229;-82
2024/04/14 13:25:52;;;;;;;2.35;2.15;;;;;;;;;;5499634;26;20715;-82
2024/04/14 13:28:23;;;;;;;2.90;2.63;;;;;;;;;;5529448;26;20258;-81
2024/04/14 13:30:48;;;;;;;2.65;2.45;;;;;;;;;;5499361;26;20606;-81
2024/04/14 13:33:17;;;;;;;2.92;2.42;;;;;;;;;;5490734;26;20233;-81
2024/04/14 13:35:43;;;;;;;3.08;2.70;;;;;;;;;;5489489;26;20276;-81
2024/04/14 13:38:11;;;;;;;5.07;2.58;;;;;;;;;;5491890;26;20317;-81
2024/04/14 13:40:38;;;;;;;2.30;2.10;;;;;;;;;;5489320;26;20288;-81
2024/04/14 13:43:07;;;;;;;3.03;2.30;;;;;;;;;;5506019;26;20300;-81
2024/04/14 13:45:35;;;;;;;2.17;2.00;;;;;;;;;;5526044;26;20344;-81
2024/04/14 13:48:04;;;;;;;3.88;2.45;;;;;;;;;;5528477;26;20246;-81
2024/04/14 13:50:30;;;;;;;3.58;2.70;;;;;;;;;;5499330;26;20229;-81
2024/04/14 13:52:59;;;;;;;2.28;2.08;;;;;;;;;;5491849;26;20209;-82
2024/04/14 13:55:25;;;;;;;2.47;1.73;;;;;;;;;;5488763;26;20225;-82
2024/04/14 13:57:54;;;;;;;5.10;2.53;;;;;;;;;;5494503;26;20275;-81
2024/04/14 14:00:21;;;;;;;4.97;2.15;;;;;;;;;;5492712;26;20712;-84
2024/04/14 14:02:53;;;;;;;2.50;2.30;;;;;;;;;;5495658;26;20213;-79
2024/04/14 14:05:18;;;;;;;2.40;2.08;;;;;;;;;;5493206;26;20275;-82
2024/04/14 14:07:47;;;;;;;2.70;2.35;;;;;;;;;;5495041;26;20687;-82
2024/04/14 14:10:13;;;;;;;2.33;2.13;;;;;;;;;;5490086;26;20233;-81
2024/04/14 14:12:42;;;;;;;2.15;2.05;;;;;;;;;;5509683;26;20304;-83
2024/04/14 14:15:08;;;;;;;4.88;2.22;;;;;;;;;;5529748;26;20344;-83
2024/04/14 14:17:38;;;;;;;4.55;2.75;;;;;;;;;;5531997;26;20216;-83
2024/04/14 14:20:08;;;;;;;2.22;2.00;;;;;;;;;;5529361;26;20742;-83
2024/04/14 14:22:36;;;;;;;3.25;1.95;;;;;;;;;;5523146;26;20730;-83
2024/04/14 14:25:02;;;;;;;2.88;1.70;;;;;;;;;;5492101;26;20562;-83
2024/04/14 14:27:31;;;;;;;3.65;2.13;;;;;;;;;;5494581;26;20273;-82
2024/04/14 14:29:57;;;;;;;3.05;1.95;;;;;;;;;;5499397;26;20592;-82
2024/04/14 14:32:25;;;;;;;4.10;1.95;;;;;;;;;;5529854;26;20224;-84
2024/04/14 14:37:43;;;;;;;3.63;1.92;;;;;;;;;;5494995;26;20294;-83
2024/04/14 14:40:12;;;;;;;3.03;2.13;;;;;;;;;;5492266;26;20271;-83
2024/04/14 14:42:40;;;;;;;2.28;2.08;;;;;;;;;;5492033;26;20271;-83
2024/04/14 14:45:06;;;;;;;4.50;2.45;;;;;;;;;;5525749;26;20236;-83
2024/04/14 14:47:35;;;;;;;2.40;2.20;;;;;;;;;;5531562;26;20272;-83
2024/04/14 14:50:00;;;;;;;2.55;2.03;;;;;;;;;;5528848;26;20311;-83